Time;durP1;ratioP1;P1;durP2;ratioP2;P2;SDS_P1;SDS_P2;PMS_P1;PMS_P2;Temp;Humidity;BMP_temperature;BMP_pressure;BME280_temperature;BME280_humidity;BME280_pressure;Samples;Min_cycle;Max_cycle;Signal;HPM_P1;HPM_P2
2022/11/09 00:00:05;;;;;;;;;1.67;1.67;;;;;12.91;78.65;100348.94;5051988;28;9221;-65
2022/11/09 00:02:32;;;;;;;;;1.33;1.33;;;;;12.88;78.85;100336.69;5052505;28;9328;-65
2022/11/09 00:04:58;;;;;;;;;2.00;2.00;;;;;12.91;78.75;100340.84;5048846;28;9317;-64
2022/11/09 00:07:24;;;;;;;;;2.00;2.00;;;;;12.90;78.69;100333.78;5042506;28;9344;-64
2022/11/09 00:09:51;;;;;;;;;2.33;2.33;;;;;12.85;78.72;100338.00;5051867;28;9225;-64
2022/11/09 00:12:17;;;;;;;;;2.00;2.00;;;;;12.92;78.58;100327.09;5052502;28;9298;-64
2022/11/09 00:14:44;;;;;;;;;4.00;4.00;;;;;12.91;78.59;100338.97;5050542;28;9329;-64
2022/11/09 00:17:10;;;;;;;;;3.00;2.33;;;;;12.91;78.65;100347.06;5051222;28;9319;-64
2022/11/09 00:19:36;;;;;;;;;1.00;1.00;;;;;12.91;78.57;100340.84;5039259;28;9298;-65
2022/11/09 00:22:03;;;;;;;;;2.00;2.00;;;;;12.87;78.55;100353.97;5052309;28;9417;-64
2022/11/09 00:24:29;;;;;;;;;2.00;1.00;;;;;12.85;78.48;100354.19;5051645;28;9187;-65
2022/11/09 00:26:56;;;;;;;;;2.00;2.00;;;;;12.90;78.23;100355.41;5050964;28;9161;-65
2022/11/09 00:29:22;;;;;;;;;1.67;1.67;;;;;12.93;78.28;100341.47;5050302;28;9181;-65
2022/11/09 00:31:49;;;;;;;;;2.00;2.00;;;;;12.91;78.08;100340.84;5053786;28;9174;-65
2022/11/09 00:34:15;;;;;;;;;3.67;3.33;;;;;12.91;78.16;100343.53;5043761;28;9246;-65
2022/11/09 00:36:42;;;;;;;;;1.33;1.33;;;;;12.94;78.09;100343.94;5052099;28;9197;-66
2022/11/09 00:39:08;;;;;;;;;2.00;2.00;;;;;12.96;77.93;100341.81;5050886;28;9047;-65
2022/11/09 00:41:34;;;;;;;;;5.67;4.67;;;;;12.98;77.69;100339.75;5050950;28;9154;-65
2022/11/09 00:44:01;;;;;;;;;2.00;2.00;;;;;12.98;77.92;100345.13;5050396;28;9186;-64
2022/11/09 00:46:28;;;;;;;;;2.67;1.67;;;;;12.90;77.60;100347.31;5046956;28;8998;-65
2022/11/09 00:48:55;;;;;;;;;2.00;2.00;;;;;12.87;77.59;100352.09;5046395;28;9109;-66
2022/11/09 00:51:21;;;;;;;;;2.00;2.00;;;;;12.82;77.58;100340.31;5046918;28;9168;-65
2022/11/09 00:53:53;;;;;;;;;6.00;2.67;;;;;12.89;77.32;100343.78;5046506;28;9250;-64
2022/11/09 00:56:20;;;;;;;;;3.00;1.00;;;;;12.80;77.22;100347.78;5047814;28;9166;-65
2022/11/09 00:58:46;;;;;;;;;1.67;1.67;;;;;12.85;77.22;100351.50;5040623;28;9075;-67
2022/11/09 01:01:15;;;;;;;;;1.67;0.00;;;;;12.84;77.00;100335.50;5042695;28;9047;-65
2022/11/09 01:03:44;;;;;;;;;4.00;4.00;;;;;12.84;77.06;100339.03;5051905;28;9829;-65
2022/11/09 01:06:15;;;;;;;;;3.33;1.00;;;;;12.85;76.89;100339.88;5050538;28;9269;-65
2022/11/09 01:08:42;;;;;;;;;2.00;2.00;;;;;12.91;76.64;100333.56;5052298;28;9190;-64
2022/11/09 01:11:09;;;;;;;;;3.00;2.67;;;;;12.92;76.57;100323.56;5045763;28;9245;-65
2022/11/09 01:13:37;;;;;;;;;2.00;2.00;;;;;12.84;76.26;100327.38;5049481;28;9191;-64
2022/11/09 01:16:11;;;;;;;;;1.00;1.00;;;;;12.91;76.10;100336.25;5041818;28;9374;-65
2022/11/09 01:18:38;;;;;;;;;2.00;2.00;;;;;12.81;76.27;100333.25;5030090;28;9372;-65
2022/11/09 01:21:08;;;;;;;;;2.00;2.00;;;;;12.86;76.15;100349.63;5041427;28;9294;-65
2022/11/09 01:23:35;;;;;;;;;1.33;1.33;;;;;12.85;75.70;100351.50;5057242;28;9359;-65
2022/11/09 01:26:04;;;;;;;;;2.33;2.00;;;;;12.80;76.05;100348.63;5039163;28;9362;-65
2022/11/09 01:28:31;;;;;;;;;1.33;1.33;;;;;12.76;76.02;100355.53;5041935;28;9265;-65
2022/11/09 01:31:05;;;;;;;;;1.00;1.00;;;;;12.76;75.86;100355.53;5050438;28;9292;-65
2022/11/09 01:33:32;;;;;;;;;1.00;1.00;;;;;12.77;76.09;100356.34;5049015;28;9351;-65
2022/11/09 01:36:21;;;;;;;;;2.00;1.00;;;;;12.74;75.86;100348.69;5041107;28;9449;-65
2022/11/09 01:38:48;;;;;;;;;1.00;1.00;;;;;12.69;75.56;100349.34;5043954;28;9328;-66
2022/11/09 01:41:25;;;;;;;;;5.00;3.33;;;;;12.66;75.90;100340.84;5045326;28;9374;-65
2022/11/09 01:44:14;;;;;;;;;7.33;2.33;;;;;12.62;75.81;100352.09;5043304;28;9455;-65
2022/11/09 01:46:50;;;;;;;;;7.00;5.50;;;;;12.60;75.59;100340.69;5043460;28;9380;-65
2022/11/09 01:49:33;;;;;;;;;6.33;5.00;;;;;12.67;75.78;100347.91;5049941;28;9453;-64
2022/11/09 01:52:30;;;;;;;;;0.33;0.33;;;;;12.69;75.45;100356.63;5050365;28;9360;-65
2022/11/09 01:55:05;;;;;;;;;1.00;1.00;;;;;12.61;75.51;100346.91;5038909;28;9164;-65
2022/11/09 01:57:38;;;;;;;;;2.00;2.00;;;;;12.63;75.41;100361.00;5048381;28;9309;-65
2022/11/09 02:00:09;;;;;;;;;2.00;2.00;;;;;12.54;75.26;100356.94;5048509;28;9326;-65
2022/11/09 02:02:44;;;;;;;;;1.00;1.00;;;;;12.48;75.11;100357.81;5049269;28;9100;-65
2022/11/09 02:05:16;;;;;;;;;1.00;1.00;;;;;12.46;75.43;100349.09;5044592;28;9122;-65
2022/11/09 02:07:45;;;;;;;;;1.33;1.33;;;;;12.46;75.31;100352.63;5058260;28;9331;-65
2022/11/09 02:10:21;;;;;;;;;1.00;1.00;;;;;12.46;75.35;100341.00;5048060;28;9333;-65
2022/11/09 02:12:49;;;;;;;;;3.00;2.00;;;;;12.52;75.07;100351.78;5045106;28;9328;-65
2022/11/09 02:15:16;;;;;;;;;1.00;1.00;;;;;12.45;75.25;100345.59;5049596;28;9323;-64
2022/11/09 02:17:43;;;;;;;;;1.00;1.00;;;;;12.46;75.16;100358.03;5049054;28;9448;-65
2022/11/09 02:20:12;;;;;;;;;3.00;2.33;;;;;12.45;75.18;100355.56;5048736;28;9512;-65
2022/11/09 02:22:40;;;;;;;;;1.00;0.33;;;;;12.45;75.04;100353.69;5048018;28;9318;-65
2022/11/09 02:25:08;;;;;;;;;1.50;1.25;;;;;12.48;75.18;100363.22;5044744;28;10127;-65
2022/11/09 02:27:38;;;;;;;;;1.00;1.00;;;;;12.46;75.28;100355.31;5041662;28;9452;-65
2022/11/09 02:30:05;;;;;;;;;1.00;1.00;;;;;12.48;75.24;100353.25;5040341;28;9387;-64
2022/11/09 02:32:32;;;;;;;;;2.00;0.75;;;;;12.57;75.14;100345.69;5050026;28;9347;-66
2022/11/09 02:34:59;;;;;;;;;1.33;1.33;;;;;12.63;74.99;100334.00;5046244;28;9567;-65
2022/11/09 02:37:34;;;;;;;;;2.00;2.00;;;;;12.59;75.14;100347.13;5048394;28;9388;-65
2022/11/09 02:40:06;;;;;;;;;3.00;1.75;;;;;12.58;75.16;100350.06;5048986;28;9384;-64
2022/11/09 02:42:32;;;;;;;;;0.33;0.33;;;;;12.53;75.52;100345.31;5048430;28;9544;-64
2022/11/09 02:44:59;;;;;;;;;1.00;1.00;;;;;12.54;75.37;100343.44;5047259;28;9456;-65
2022/11/09 02:47:25;;;;;;;;;2.75;2.00;;;;;12.54;75.54;100349.66;5049113;28;9300;-65
2022/11/09 02:49:52;;;;;;;;;1.00;1.00;;;;;12.53;75.65;100342.63;5044608;28;9472;-65
2022/11/09 02:52:18;;;;;;;;;2.00;2.00;;;;;12.48;75.70;100353.25;5045331;28;9305;-63
2022/11/09 02:54:45;;;;;;;;;7.00;2.00;;;;;12.53;75.79;100349.88;5043784;28;9520;-65
2022/11/09 02:57:13;;;;;;;;;2.33;2.00;;;;;12.48;75.80;100347.03;5065276;28;10320;-65
2022/11/09 02:59:40;;;;;;;;;1.00;1.00;;;;;12.51;75.70;100331.19;5047685;28;9394;-65
2022/11/09 03:02:07;;;;;;;;;2.00;1.00;;;;;12.46;75.83;100347.22;5044281;28;9338;-65
2022/11/09 03:04:34;;;;;;;;;2.00;1.00;;;;;12.39;76.06;100335.63;5063013;28;9375;-65
2022/11/09 03:07:01;;;;;;;;;1.75;1.00;;;;;12.47;75.76;100335.38;5044909;28;9309;-65
2022/11/09 03:09:28;;;;;;;;;0.00;0.00;;;;;12.49;75.91;100329.78;5048556;28;9548;-65
2022/11/09 03:11:55;;;;;;;;;3.00;3.00;;;;;12.51;75.79;100333.88;5045021;28;9534;-63
2022/11/09 03:14:21;;;;;;;;;2.00;2.00;;;;;12.45;76.05;100340.19;5039684;28;9592;-67
2022/11/09 03:16:53;;;;;;;;;1.00;1.00;;;;;12.52;75.97;100330.16;5047986;28;9442;-65
2022/11/09 03:19:19;;;;;;;;;2.00;2.00;;;;;12.54;75.59;100338.03;5040403;28;9508;-64
2022/11/09 03:21:49;;;;;;;;;3.00;1.67;;;;;12.55;75.86;100331.59;5047388;28;10193;-65
2022/11/09 03:24:20;;;;;;;;;1.75;1.00;;;;;12.52;75.69;100349.06;5048284;28;9237;-65
2022/11/09 03:26:48;;;;;;;;;0.00;0.00;;;;;12.53;75.91;100339.09;5034287;28;10345;-65
2022/11/09 03:29:14;;;;;;;;;1.00;1.00;;;;;12.46;76.01;100351.81;5044432;28;9323;-65
2022/11/09 03:31:41;;;;;;;;;1.00;1.00;;;;;12.46;75.71;100358.03;5047607;28;9252;-65
2022/11/09 03:34:08;;;;;;;;;2.00;2.00;;;;;12.36;76.29;100363.09;5048085;28;9412;-65
2022/11/09 03:36:35;;;;;;;;;2.00;2.00;;;;;12.39;76.07;100373.44;5044902;28;9538;-65
2022/11/09 03:39:01;;;;;;;;;1.50;1.50;;;;;12.35;76.35;100377.59;5038330;28;9436;-65
2022/11/09 03:41:28;;;;;;;;;1.00;1.00;;;;;12.33;76.47;100385.13;5041255;28;9610;-64
2022/11/09 03:43:54;;;;;;;;;4.75;4.75;;;;;12.33;76.21;100379.72;5050947;28;9446;-65
2022/11/09 03:46:21;;;;;;;;;1.25;1.25;;;;;12.24;76.54;100392.63;5048073;28;9569;-64
2022/11/09 03:48:47;;;;;;;;;2.00;2.00;;;;;12.26;76.69;100393.25;5052098;28;9442;-66
2022/11/09 03:51:14;;;;;;;;;2.00;2.00;;;;;12.25;76.77;100399.69;5045893;28;9461;-65
2022/11/09 03:53:40;;;;;;;;;3.25;1.75;;;;;12.29;76.74;100406.31;5052999;28;9512;-65
2022/11/09 03:56:06;;;;;;;;;0.75;0.75;;;;;12.30;76.85;100407.94;5048202;28;9525;-65
2022/11/09 03:58:33;;;;;;;;;2.00;2.00;;;;;12.30;76.46;100407.94;5052965;28;9376;-65
2022/11/09 04:00:59;;;;;;;;;3.00;1.00;;;;;12.29;76.48;100411.69;5046788;28;9560;-65
2022/11/09 04:03:26;;;;;;;;;4.33;2.00;;;;;12.30;76.69;100413.34;5051302;28;9319;-65
2022/11/09 04:05:52;;;;;;;;;1.00;1.00;;;;;12.31;76.88;100409.59;5052196;28;9351;-65
2022/11/09 04:08:19;;;;;;;;;1.25;1.25;;;;;12.34;76.46;100408.34;5052880;28;9386;-63
2022/11/09 04:10:45;;;;;;;;;2.00;2.00;;;;;12.31;76.61;100409.59;5044452;28;9516;-64
2022/11/09 04:13:11;;;;;;;;;1.00;1.00;;;;;12.28;76.83;100415.44;5050712;28;9496;-65
2022/11/09 04:15:38;;;;;;;;;1.00;1.00;;;;;12.31;76.39;100404.19;5052036;28;9333;-65
2022/11/09 04:18:04;;;;;;;;;2.00;1.00;;;;;12.31;76.55;100408.78;5052855;28;9205;-65
2022/11/09 04:20:31;;;;;;;;;2.00;2.00;;;;;12.34;76.61;100408.34;5051336;28;9420;-65
2022/11/09 04:23:00;;;;;;;;;3.00;1.00;;;;;12.28;76.49;100401.97;5046537;28;9401;-65
2022/11/09 04:25:31;;;;;;;;;3.50;2.00;;;;;12.30;76.57;100413.34;5042847;28;9415;-65
2022/11/09 04:27:58;;;;;;;;;3.00;3.00;;;;;12.23;76.64;100420.66;5067787;28;9452;-65
2022/11/09 04:30:27;;;;;;;;;1.00;1.00;;;;;12.22;76.85;100412.78;5051370;28;9520;-66
2022/11/09 04:32:55;;;;;;;;;2.00;1.00;;;;;12.26;76.68;100428.31;5051103;28;9339;-65
2022/11/09 04:35:22;;;;;;;;;2.00;2.00;;;;;12.19;76.76;100422.13;5051291;28;10092;-65
2022/11/09 04:37:55;;;;;;;;;3.00;2.33;;;;;12.06;77.33;100424.88;5050878;28;9250;-65
2022/11/09 04:40:24;;;;;;;;;2.00;1.33;;;;;12.12;77.21;100421.34;5047977;28;9301;-67
2022/11/09 04:42:51;;;;;;;;;1.00;0.33;;;;;12.18;76.72;100425.88;5046380;28;9450;-66
2022/11/09 04:45:19;;;;;;;;;2.00;1.00;;;;;12.22;76.95;100428.97;5050371;28;9502;-66
2022/11/09 04:47:45;;;;;;;;;2.00;1.67;;;;;12.26;76.73;100428.31;5052195;28;9486;-66
2022/11/09 04:50:12;;;;;;;;;1.00;1.00;;;;;12.21;76.59;100430.84;5050687;28;9451;-64
2022/11/09 04:52:39;;;;;;;;;1.00;1.00;;;;;12.28;76.37;100428.13;5046955;28;9397;-65
2022/11/09 04:55:06;;;;;;;;;2.00;2.00;;;;;12.28;76.59;100437.03;5050322;28;9296;-66
2022/11/09 04:57:33;;;;;;;;;1.50;1.25;;;;;12.25;76.13;100442.88;5051074;28;9401;-65
2022/11/09 04:59:59;;;;;;;;;2.75;1.75;;;;;12.18;76.29;100439.38;5034616;28;9509;-64
2022/11/09 05:02:25;;;;;;;;;5.00;1.00;;;;;12.21;76.87;100444.34;5051467;28;9428;-64
2022/11/09 05:04:52;;;;;;;;;1.00;1.00;;;;;12.22;76.74;100443.28;5045377;28;9753;-65
2022/11/09 05:07:18;;;;;;;;;1.00;1.00;;;;;12.25;76.82;100447.44;5042945;28;9396;-64
2022/11/09 05:09:45;;;;;;;;;1.67;1.67;;;;;12.23;77.10;100449.50;5050539;28;9667;-65
2022/11/09 05:12:11;;;;;;;;;5.00;2.00;;;;;12.18;77.28;100442.06;5051241;28;9305;-65
2022/11/09 05:14:38;;;;;;;;;2.00;1.00;;;;;12.17;77.25;100435.00;5049956;28;10084;-66
2022/11/09 05:17:05;;;;;;;;;0.00;0.00;;;;;12.21;77.56;100433.53;5050044;28;9381;-66
2022/11/09 05:19:31;;;;;;;;;0.67;0.00;;;;;12.13;77.42;100433.78;5050931;28;10373;-65
2022/11/09 05:23:57;;;;;;;;;1.00;1.00;;;;;12.10;77.86;100431.50;5037826;28;9456;-65
2022/11/09 05:24:44;;;;;;;;;0.67;0.67;;;;;12.08;77.60;100431.75;5038446;28;9376;-65
2022/11/09 05:27:11;;;;;;;;;2.00;1.00;;;;;12.03;77.62;100430.69;5051269;28;9337;-64
2022/11/09 05:29:37;;;;;;;;;2.50;1.50;;;;;12.01;77.82;100435.50;5050159;28;9292;-65
2022/11/09 05:32:04;;;;;;;;;1.33;0.00;;;;;12.03;77.85;100434.25;5051024;28;9466;-65
2022/11/09 05:34:31;;;;;;;;;4.00;0.50;;;;;12.02;77.50;100429.06;5048005;28;9311;-65
2022/11/09 05:36:57;;;;;;;;;0.00;0.00;;;;;12.06;77.44;100430.28;5034381;28;9577;-65
2022/11/09 05:39:29;;;;;;;;;1.00;1.00;;;;;12.05;77.53;100431.34;5049278;28;9387;-65
2022/11/09 05:41:55;;;;;;;;;1.00;1.00;;;;;12.04;77.58;100433.22;5049054;28;9612;-64
2022/11/09 05:44:21;;;;;;;;;0.00;0.00;;;;;12.04;77.41;100432.38;5048349;28;9393;-65
2022/11/09 05:46:48;;;;;;;;;0.50;0.00;;;;;12.04;77.27;100435.06;5045206;28;9407;-66
2022/11/09 05:49:14;;;;;;;;;1.00;1.00;;;;;12.03;76.74;100438.78;5049129;28;9483;-65
2022/11/09 05:51:41;;;;;;;;;1.00;0.75;;;;;11.92;76.79;100428.69;5040777;28;9596;-65
2022/11/09 05:54:07;;;;;;;;;0.67;0.67;;;;;11.95;76.91;100447.13;5048940;28;9462;-64
2022/11/09 05:56:34;;;;;;;;;0.00;0.00;;;;;11.90;77.11;100444.25;5048729;28;9466;-65
2022/11/09 05:59:00;;;;;;;;;1.25;0.50;;;;;11.84;77.37;100445.94;5050033;28;9385;-64
2022/11/09 06:01:27;;;;;;;;;2.00;2.00;;;;;11.80;77.24;100444.66;5045308;28;9531;-65
2022/11/09 06:03:53;;;;;;;;;1.00;1.00;;;;;11.74;77.80;100440.94;5048757;28;9409;-64
2022/11/09 06:06:20;;;;;;;;;0.00;0.00;;;;;11.79;77.76;100443.03;5048445;28;9472;-65
2022/11/09 06:08:46;;;;;;;;;2.00;0.33;;;;;11.86;77.69;100446.53;5049675;28;9365;-65
2022/11/09 06:11:13;;;;;;;;;0.00;0.00;;;;;11.88;77.42;100453.38;5046595;28;9294;-64
2022/11/09 06:13:49;;;;;;;;;1.75;1.75;;;;;11.88;77.36;100453.38;5049044;28;9402;-65
2022/11/09 06:16:15;;;;;;;;;2.00;1.00;;;;;11.93;77.45;100460.00;5049276;28;9616;-65
2022/11/09 06:18:41;;;;;;;;;1.50;1.00;;;;;11.94;77.19;100465.19;5042054;28;9617;-64
2022/11/09 06:21:08;;;;;;;;;0.00;0.00;;;;;11.86;77.15;100471.63;5035616;28;9433;-64
2022/11/09 06:23:35;;;;;;;;;2.50;1.25;;;;;11.83;77.41;100465.88;5050019;28;9302;-64
2022/11/09 06:26:08;;;;;;;;;0.25;0.00;;;;;11.84;77.35;100467.50;5049623;28;9489;-64
2022/11/09 06:28:36;;;;;;;;;3.25;0.00;;;;;11.83;77.26;100466.69;5049865;28;9397;-63
2022/11/09 06:31:05;;;;;;;;;3.50;1.00;;;;;11.84;77.05;100462.13;5049259;28;9575;-64
2022/11/09 06:33:33;;;;;;;;;1.75;1.00;;;;;11.77;77.41;100464.78;5047392;28;9430;-64
2022/11/09 06:36:00;;;;;;;;;1.00;1.00;;;;;11.83;76.95;100479.34;5039791;28;9490;-64
2022/11/09 06:38:27;;;;;;;;;2.25;1.00;;;;;11.76;77.36;100476.63;5049818;28;9386;-65
2022/11/09 06:40:55;;;;;;;;;1.67;0.00;;;;;11.82;77.23;100473.06;5039033;28;9450;-65
2022/11/09 06:43:22;;;;;;;;;0.67;0.67;;;;;11.82;77.24;100478.47;5039627;28;9367;-65
2022/11/09 06:45:49;;;;;;;;;1.00;1.00;;;;;11.68;77.36;100479.53;5045198;28;9296;-65
2022/11/09 06:48:16;;;;;;;;;2.00;2.00;;;;;11.69;77.36;100480.38;5048978;28;9288;-64
2022/11/09 06:50:43;;;;;;;;;0.00;0.00;;;;;11.67;77.29;100482.44;5043142;28;9545;-65
2022/11/09 06:53:11;;;;;;;;;2.00;1.75;;;;;11.66;77.51;100484.31;5044715;28;9504;-64
2022/11/09 06:55:38;;;;;;;;;1.33;1.00;;;;;11.69;77.57;100486.59;5040764;28;9398;-65
2022/11/09 06:58:10;;;;;;;;;1.00;1.00;;;;;11.73;77.53;100484.31;5045056;28;9297;-65
2022/11/09 07:00:37;;;;;;;;;0.50;0.50;;;;;11.66;77.16;100497.78;5039899;28;9434;-64
2022/11/09 07:03:03;;;;;;;;;3.00;1.00;;;;;11.61;77.64;100490.31;5049286;28;9494;-65
2022/11/09 07:05:30;;;;;;;;;1.00;0.75;;;;;11.69;77.53;100489.28;5043203;28;9464;-64
2022/11/09 07:07:56;;;;;;;;;0.00;0.00;;;;;11.67;77.43;100504.00;5047421;28;9630;-65
2022/11/09 07:10:23;;;;;;;;;1.75;1.75;;;;;11.68;77.26;100494.91;5043414;28;9444;-65
2022/11/09 07:12:50;;;;;;;;;0.75;0.75;;;;;11.70;77.50;100500.88;5030061;28;9467;-65
2022/11/09 07:15:17;;;;;;;;;3.25;2.75;;;;;11.72;77.60;100496.97;5035765;28;9549;-65
2022/11/09 07:17:43;;;;;;;;;1.25;1.25;;;;;11.71;77.27;100499.84;5050399;28;9598;-65
2022/11/09 07:20:10;;;;;;;;;2.00;0.33;;;;;11.74;77.41;100497.56;5048154;28;9391;-65
2022/11/09 07:22:38;;;;;;;;;1.50;1.50;;;;;11.75;77.59;100496.53;5052451;28;9489;-65
2022/11/09 07:25:06;;;;;;;;;2.75;1.50;;;;;11.72;77.43;100496.97;5049503;28;9649;-65
2022/11/09 07:27:33;;;;;;;;;4.25;3.00;;;;;11.76;77.67;100506.28;5032515;28;9613;-65
2022/11/09 07:30:00;;;;;;;;;0.75;0.75;;;;;11.74;77.61;100502.13;5036688;28;10268;-65
2022/11/09 07:32:27;;;;;;;;;2.00;1.00;;;;;11.80;77.43;100509.41;5053364;28;10336;-65
2022/11/09 07:35:13;;;;;;;;;3.00;2.00;;;;;11.83;77.60;100509.00;5052837;28;9610;-65
2022/11/09 07:37:39;;;;;;;;;3.25;1.00;;;;;11.72;77.51;100510.44;5053131;28;9513;-65
2022/11/09 07:40:07;;;;;;;;;3.00;3.00;;;;;11.75;77.60;100510.03;5048355;28;9431;-65
2022/11/09 07:42:33;;;;;;;;;1.50;1.50;;;;;11.63;78.27;100512.53;5033498;28;9626;-65
2022/11/09 07:44:59;;;;;;;;;3.50;2.75;;;;;11.61;78.65;100521.84;5036700;28;9527;-65
2022/11/09 07:47:26;;;;;;;;;4.25;1.75;;;;;11.70;78.24;100515.19;5043215;28;9808;-64
2022/11/09 07:49:52;;;;;;;;;1.50;1.50;;;;;11.70;77.84;100512.50;5035693;28;10293;-65
2022/11/09 07:52:19;;;;;;;;;2.75;1.50;;;;;11.78;78.09;100514.97;5044917;28;9483;-65
2022/11/09 07:54:45;;;;;;;;;1.00;1.00;;;;;11.82;77.81;100518.91;5033468;28;9454;-65
2022/11/09 07:57:17;;;;;;;;;1.00;1.00;;;;;11.87;77.78;100521.88;5053291;28;9603;-65
2022/11/09 07:59:43;;;;;;;;;4.00;0.75;;;;;11.86;77.77;100525.56;5036034;28;9614;-65
2022/11/09 08:02:10;;;;;;;;;2.00;2.00;;;;;11.81;77.92;100527.22;5046245;28;9493;-65
2022/11/09 08:04:37;;;;;;;;;2.50;1.50;;;;;11.88;78.13;100537.00;5051612;28;9521;-65
2022/11/09 08:07:03;;;;;;;;;2.75;2.00;;;;;11.90;77.88;100530.56;5052574;28;9445;-65
2022/11/09 08:09:30;;;;;;;;;4.50;3.75;;;;;11.90;78.09;100535.94;5052604;28;9446;-66
2022/11/09 08:11:56;;;;;;;;;5.50;3.00;;;;;11.91;78.00;100527.66;5052243;28;10344;-65
2022/11/09 08:14:22;;;;;;;;;2.50;2.00;;;;;12.02;78.04;100534.25;5052687;28;9600;-65
2022/11/09 08:16:49;;;;;;;;;0.75;0.75;;;;;12.02;78.04;100537.78;5032415;28;9685;-65
2022/11/09 08:19:15;;;;;;;;;2.50;2.50;;;;;12.12;77.81;100538.19;5032605;28;10113;-65
2022/11/09 08:21:42;;;;;;;;;1.50;1.25;;;;;12.12;77.67;100540.88;5050320;28;9539;-65
2022/11/09 08:24:08;;;;;;;;;1.00;1.00;;;;;12.19;77.54;100529.22;5051977;28;9444;-65
2022/11/09 08:26:35;;;;;;;;;1.00;1.00;;;;;12.26;77.17;100532.75;5036190;28;9403;-65
2022/11/09 08:29:01;;;;;;;;;3.00;3.00;;;;;12.32;77.09;100540.00;5032206;28;9454;-65
2022/11/09 08:31:27;;;;;;;;;1.00;1.00;;;;;12.29;77.01;100533.16;5035880;28;9485;-64
2022/11/09 08:33:54;;;;;;;;;2.25;2.00;;;;;12.32;77.11;100542.69;5052272;28;9316;-65
2022/11/09 08:36:20;;;;;;;;;2.00;2.00;;;;;12.29;76.94;100533.16;5037381;28;9524;-65
2022/11/09 08:38:47;;;;;;;;;2.00;2.00;;;;;12.32;76.45;100545.41;5032312;28;9466;-65
2022/11/09 08:41:13;;;;;;;;;2.00;2.00;;;;;12.34;76.95;100540.59;5044812;28;9439;-65
2022/11/09 08:43:42;;;;;;;;;2.00;2.00;;;;;12.36;77.16;100547.47;5061429;28;9502;-65
2022/11/09 08:46:08;;;;;;;;;7.00;2.25;;;;;12.36;76.91;100547.47;5062275;28;9460;-65
2022/11/09 08:48:35;;;;;;;;;4.33;4.00;;;;;12.37;76.73;100543.72;5056472;28;9397;-65
2022/11/09 08:51:01;;;;;;;;;6.00;2.00;;;;;12.33;76.95;100553.28;5040052;28;9436;-64
2022/11/09 08:53:28;;;;;;;;;3.00;3.00;;;;;12.36;76.91;100547.47;5032665;28;9374;-65
2022/11/09 08:55:56;;;;;;;;;1.00;1.00;;;;;12.33;76.85;100555.16;5042913;28;9375;-65
2022/11/09 08:58:23;;;;;;;;;2.00;2.00;;;;;12.38;77.31;100558.03;5050853;28;9403;-65
2022/11/09 09:00:49;;;;;;;;;2.25;2.25;;;;;12.35;77.30;100559.28;5050644;28;9422;-65
2022/11/09 09:03:16;;;;;;;;;2.00;2.00;;;;;12.27;77.21;100546.00;5051585;28;10213;-65
2022/11/09 09:05:42;;;;;;;;;6.00;3.00;;;;;12.29;77.43;100564.72;5042215;28;9373;-65
2022/11/09 09:08:11;;;;;;;;;2.33;2.00;;;;;12.34;77.32;100564.91;5031739;28;9521;-65
2022/11/09 09:10:39;;;;;;;;;4.67;2.67;;;;;12.31;77.25;100565.31;5038892;28;9319;-64
2022/11/09 09:13:05;;;;;;;;;8.00;5.00;;;;;12.28;76.96;100565.75;5047305;28;9393;-64
2022/11/09 09:15:32;;;;;;;;;4.00;1.67;;;;;12.32;77.14;100565.13;5050619;28;9455;-64
2022/11/09 09:18:00;;;;;;;;;3.33;3.33;;;;;12.24;77.40;100562.66;5050753;28;9318;-64
2022/11/09 09:20:27;;;;;;;;;2.33;2.33;;;;;12.31;77.36;100558.03;5050691;28;9465;-64
2022/11/09 09:22:57;;;;;;;;;4.00;4.00;;;;;12.35;77.15;100559.28;5051425;28;9476;-64
2022/11/09 09:25:23;;;;;;;;;4.00;4.00;;;;;12.35;77.07;100556.56;5045372;28;9403;-65
2022/11/09 09:27:50;;;;;;;;;4.75;4.25;;;;;12.29;76.91;100557.44;5051132;28;9549;-64
2022/11/09 09:30:17;;;;;;;;;3.75;3.75;;;;;12.19;77.20;100558.91;5049209;28;9529;-65
2022/11/09 09:32:43;;;;;;;;;7.25;5.50;;;;;12.24;77.06;100559.13;5051025;28;9492;-65
2022/11/09 09:35:10;;;;;;;;;1.67;1.67;;;;;12.22;76.89;100563.91;5049427;28;9509;-65
2022/11/09 09:37:36;;;;;;;;;4.50;4.50;;;;;12.28;76.95;100571.16;5032868;28;9440;-65
2022/11/09 09:40:03;;;;;;;;;7.00;3.50;;;;;12.29;76.57;100567.41;5033958;28;9380;-66
2022/11/09 09:42:36;;;;;;;;;5.00;3.00;;;;;12.33;76.90;100579.44;5050959;28;9443;-65
2022/11/09 09:45:21;;;;;;;;;8.00;4.50;;;;;12.27;76.79;100575.69;5046771;28;9459;-65
2022/11/09 09:48:24;;;;;;;;;5.50;5.50;;;;;12.23;76.99;100582.56;5030775;28;10339;-66
2022/11/09 09:51:00;;;;;;;;;5.25;5.00;;;;;12.29;76.85;100586.31;5020575;28;9565;-65
2022/11/09 09:53:36;;;;;;;;;7.50;5.75;;;;;12.30;76.81;100594.19;5050482;28;9620;-65
2022/11/09 09:56:18;;;;;;;;;5.00;5.00;;;;;12.25;77.12;100583.19;5049968;28;9454;-65
2022/11/09 09:58:57;;;;;;;;;6.00;5.00;;;;;12.36;76.87;100585.25;5050606;28;9437;-65
2022/11/09 10:01:34;;;;;;;;;7.00;6.00;;;;;12.38;76.61;100591.25;5035030;28;9637;-66
2022/11/09 10:04:01;;;;;;;;;6.00;3.00;;;;;12.48;76.47;100595.41;5040547;28;9612;-65
2022/11/09 10:06:41;;;;;;;;;7.00;5.00;;;;;12.54;76.12;100606.16;5034412;28;9392;-66
2022/11/09 10:09:22;;;;;;;;;2.00;2.00;;;;;12.56;76.05;100611.34;5030931;28;10417;-66
2022/11/09 10:12:17;;;;;;;;;4.33;2.67;;;;;12.55;76.14;100609.69;5048666;28;9509;-66
2022/11/09 10:14:52;;;;;;;;;6.25;6.25;;;;;12.47;76.11;100610.75;5047928;28;9458;-66
2022/11/09 10:17:50;;;;;;;;;5.50;5.00;;;;;12.43;76.10;100605.97;5037670;28;9528;-66
2022/11/09 10:21:02;;;;;;;;;6.25;5.00;;;;;12.48;76.04;100617.81;5043124;28;9539;-66
2022/11/09 10:23:45;;;;;;;;;5.00;3.00;;;;;12.33;76.17;100615.34;5031802;28;9379;-66
2022/11/09 10:26:22;;;;;;;;;3.00;3.00;;;;;12.37;76.03;100611.19;5037889;28;9466;-66
2022/11/09 10:28:57;;;;;;;;;5.25;3.50;;;;;12.40;75.92;100631.53;5050178;28;9435;-65
2022/11/09 10:31:45;;;;;;;;;6.67;2.33;;;;;12.40;75.92;100617.19;5048814;28;9526;-65
2022/11/09 10:34:39;;;;;;;;;3.25;2.50;;;;;12.28;75.85;100614.34;5050015;28;9476;-65
2022/11/09 10:37:37;;;;;;;;;5.00;4.50;;;;;12.22;75.95;100612.47;5025810;28;9556;-65
2022/11/09 10:40:07;;;;;;;;;6.00;3.00;;;;;12.27;76.07;100613.47;5027834;28;9527;-64
2022/11/09 10:43:00;;;;;;;;;3.50;3.50;;;;;12.33;75.92;100601.03;5030020;28;9381;-65
2022/11/09 10:46:04;;;;;;;;;3.75;3.75;;;;;12.42;75.81;100601.63;5039164;28;9449;-65
2022/11/09 10:48:51;;;;;;;;;2.33;2.00;;;;;12.36;75.66;100601.44;5049664;28;9497;-65
2022/11/09 10:51:41;;;;;;;;;6.50;3.75;;;;;12.31;76.07;100613.91;5030452;28;9414;-64
2022/11/09 10:54:33;;;;;;;;;4.33;4.33;;;;;12.33;76.54;100611.84;5034238;28;9385;-64
2022/11/09 10:57:21;;;;;;;;;7.50;5.50;;;;;12.38;76.65;100606.63;5042567;28;9604;-65
2022/11/09 11:00:18;;;;;;;;;2.50;2.00;;;;;12.45;76.78;100598.50;5052941;28;9535;-65
2022/11/09 11:03:16;;;;;;;;;2.50;2.50;;;;;12.55;76.82;100597.00;5053951;28;9448;-64
2022/11/09 11:06:19;;;;;;;;;3.75;3.75;;;;;12.61;76.91;100598.03;5040546;28;9552;-64
2022/11/09 11:09:04;;;;;;;;;7.33;4.00;;;;;12.52;76.83;100602.03;5033734;28;9540;-64
2022/11/09 11:12:12;;;;;;;;;4.00;4.00;;;;;12.44;76.74;100595.00;5050754;28;9391;-65
2022/11/09 11:14:57;;;;;;;;;3.00;3.00;;;;;12.49;76.66;100589.78;5049709;28;9467;-65
2022/11/09 11:17:43;;;;;;;;;2.00;2.00;;;;;12.51;76.22;100586.84;5051752;28;10117;-65
2022/11/09 11:20:36;;;;;;;;;3.50;2.00;;;;;12.37;75.86;100596.88;5051393;28;9300;-65
2022/11/09 11:23:25;;;;;;;;;2.00;2.00;;;;;12.33;76.00;100591.06;5053856;28;9466;-65
2022/11/09 11:26:26;;;;;;;;;3.00;3.00;;;;;12.47;76.07;100596.41;5040135;28;9254;-65
2022/11/09 11:29:27;;;;;;;;;2.33;2.00;;;;;12.55;75.78;100601.56;5033869;28;10021;-65
2022/11/09 11:32:15;;;;;;;;;2.00;2.00;;;;;12.52;75.25;100599.31;5033273;28;9518;-65
2022/11/09 11:35:04;;;;;;;;;3.00;1.25;;;;;12.49;75.38;100599.75;5033622;28;9606;-65
2022/11/09 11:38:07;;;;;;;;;6.75;5.25;;;;;12.46;75.36;100611.78;5033440;28;9405;-66
2022/11/09 11:41:20;;;;;;;;;5.33;3.33;;;;;12.54;75.05;100613.44;5043563;28;9573;-65
2022/11/09 11:44:11;;;;;;;;;2.00;2.00;;;;;12.51;74.91;100619.25;5052704;28;9292;-65
2022/11/09 11:47:17;;;;;;;;;1.00;1.00;;;;;12.57;74.58;100618.41;5052657;28;9359;-63
2022/11/09 11:50:33;;;;;;;;;2.33;1.67;;;;;12.56;74.33;100617.59;5052111;28;9178;-66
2022/11/09 11:53:40;;;;;;;;;1.00;1.00;;;;;12.47;74.22;100623.41;5052714;28;9235;-66